Pirtleville, Arizona
Current Conditions -  °F | °C
As of 2:56 PM on Sunday 21 Dec 2014 (Local Time) from KDUG Reporting Station
Clear Clear  
Wind Chill: 59°   Ceiling: Unl
Heat Index: 59°   Visibility: 10mi
Dew Point: 29°   Wind: 6mph
Humidity: 32%   Direction: 250°WSW
Pressure: 30.04"   Gusts: NA
Location:  31.36°N, 109.57°W
Report Text: KDUG 212156Z AUTO 25005KT 10SM CLR 15/M02 A3004 RMK AO2 SLP152 T01501017
Loading
Personal Weather Stations






























Interactive Weather Map New forecast layout! Learn more

10-Day Weather Forecast

Advertisements
Track Severe Weather on mobile